Time;durP1;ratioP1;P1;durP2;ratioP2;P2;SDS_P1;SDS_P2;PMS_P1;PMS_P2;Temp;Humidity;BMP_temperature;BMP_pressure;BME280_temperature;BME280_humidity;BME280_pressure;Samples;Min_cycle;Max_cycle;Signal;HPM_P1;HPM_P2
2021/08/16 00:00:35;;;;;;;10.20;7.15;;;20.40;99.00;;;;;;2071337;28;20026;-72
2021/08/16 00:01:36;;;;;;;10.52;7.20;;;20.30;98.80;;;;;;2079513;28;20575;-72
2021/08/16 00:02:36;;;;;;;9.48;7.00;;;20.30;98.80;;;;;;2079437;28;20409;-72
2021/08/16 00:03:37;;;;;;;10.60;7.13;;;20.30;98.80;;;;;;2079361;28;20047;-72
2021/08/16 00:04:37;;;;;;;10.93;6.97;;;20.30;98.80;;;;;;2088408;28;20127;-72
2021/08/16 00:05:38;;;;;;;8.93;7.35;;;20.30;98.90;;;;;;2088370;28;20033;-72
2021/08/16 00:06:39;;;;;;;8.57;7.13;;;20.30;98.80;;;;;;2088473;28;20029;-72
2021/08/16 00:07:40;;;;;;;8.20;7.32;;;20.30;99.00;;;;;;2088432;28;20064;-72
2021/08/16 00:08:41;;;;;;;9.15;7.47;;;20.30;99.10;;;;;;2088101;28;20423;-71
2021/08/16 00:09:42;;;;;;;9.48;7.45;;;20.30;99.50;;;;;;2080256;28;20021;-72
2021/08/16 00:10:42;;;;;;;9.13;7.25;;;20.30;99.50;;;;;;2081141;28;20479;-72
2021/08/16 00:11:43;;;;;;;8.70;7.30;;;20.20;99.70;;;;;;2090000;28;20025;-72
2021/08/16 00:12:43;;;;;;;8.80;7.10;;;20.20;99.90;;;;;;2090133;28;20100;-72
2021/08/16 00:13:44;;;;;;;9.57;7.68;;;20.20;99.90;;;;;;2072991;28;20033;-72
2021/08/16 00:14:45;;;;;;;11.18;7.43;;;20.20;99.90;;;;;;2072883;28;20041;-72
2021/08/16 00:15:47;;;;;;;10.18;7.18;;;20.20;99.90;;;;;;2080377;28;20029;-72
2021/08/16 00:16:47;;;;;;;9.13;7.38;;;20.20;99.90;;;;;;2080901;28;20514;-72
2021/08/16 00:17:48;;;;;;;10.15;7.63;;;20.10;99.90;;;;;;2089851;28;20033;-72
2021/08/16 00:18:48;;;;;;;10.02;7.22;;;20.20;99.90;;;;;;2089660;28;20029;-72
2021/08/16 00:19:49;;;;;;;10.57;7.60;;;20.10;99.90;;;;;;2089364;28;20039;-72
2021/08/16 00:20:50;;;;;;;8.90;7.35;;;20.10;99.90;;;;;;2081341;28;20037;-72
2021/08/16 00:21:50;;;;;;;9.95;6.93;;;20.10;99.90;;;;;;2081162;28;20124;-72
2021/08/16 00:22:51;;;;;;;7.80;7.00;;;20.00;99.90;;;;;;2089922;28;20032;-72
2021/08/16 00:23:52;;;;;;;9.25;6.97;;;20.00;99.90;;;;;;2081150;28;20556;-72
2021/08/16 00:24:53;;;;;;;8.70;7.40;;;20.00;99.90;;;;;;2072646;28;20121;-72
2021/08/16 00:25:53;;;;;;;9.40;7.65;;;19.90;99.90;;;;;;2080903;28;20025;-73
2021/08/16 00:26:54;;;;;;;8.98;7.07;;;19.90;99.90;;;;;;2080970;28;20022;-73
2021/08/16 00:27:55;;;;;;;8.48;7.25;;;19.90;99.90;;;;;;2089828;28;20448;-73
2021/08/16 00:28:59;;;;;;;10.50;7.32;;;19.80;99.90;;;;;;2080231;28;20100;-72
2021/08/16 00:30:00;;;;;;;9.52;7.03;;;19.80;99.90;;;;;;2080785;28;20580;-73
2021/08/16 00:31:01;;;;;;;9.15;7.43;;;19.80;99.90;;;;;;2081171;28;20606;-72
2021/08/16 00:32:02;;;;;;;10.90;7.63;;;19.80;99.90;;;;;;2080993;28;20025;-73
2021/08/16 00:33:02;;;;;;;8.38;7.50;;;19.80;99.90;;;;;;2081032;28;20029;-72
2021/08/16 00:34:03;;;;;;;8.30;7.25;;;19.80;99.90;;;;;;2089832;28;20056;-73
2021/08/16 00:35:04;;;;;;;9.85;7.63;;;19.70;99.90;;;;;;2089672;28;20488;-72
2021/08/16 00:36:04;;;;;;;11.20;7.75;;;19.80;99.90;;;;;;2080908;28;20032;-72
2021/08/16 00:37:05;;;;;;;8.70;7.60;;;19.70;99.90;;;;;;2080786;28;20048;-72
2021/08/16 00:38:06;;;;;;;8.98;7.10;;;19.70;99.90;;;;;;2089746;28;20037;-72
2021/08/16 00:39:07;;;;;;;8.38;7.05;;;19.70;99.90;;;;;;2088855;28;20052;-72
2021/08/16 00:40:08;;;;;;;10.05;7.30;;;19.70;99.90;;;;;;2080950;28;20677;-72
2021/08/16 00:41:10;;;;;;;8.38;7.50;;;19.60;99.90;;;;;;2072907;28;20116;-72
2021/08/16 00:42:12;;;;;;;9.75;7.63;;;19.60;99.90;;;;;;2072845;28;20034;-72
2021/08/16 00:43:13;;;;;;;8.88;7.22;;;19.60;99.90;;;;;;2073159;28;20508;-72
2021/08/16 00:44:14;;;;;;;9.38;7.30;;;19.60;99.90;;;;;;2072745;28;20026;-72
2021/08/16 00:45:15;;;;;;;10.07;7.90;;;19.60;99.90;;;;;;2081071;28;20743;-72
2021/08/16 00:46:16;;;;;;;9.02;7.60;;;19.50;99.90;;;;;;2080873;28;20034;-72
2021/08/16 00:47:18;;;;;;;10.05;7.40;;;19.50;99.90;;;;;;2072713;28;20037;-72
2021/08/16 00:48:18;;;;;;;9.93;7.55;;;19.50;99.90;;;;;;2072781;28;20022;-73
2021/08/16 00:49:19;;;;;;;9.23;7.63;;;19.50;99.90;;;;;;2072295;28;20105;-72
2021/08/16 00:50:20;;;;;;;9.98;7.75;;;19.40;99.90;;;;;;2089764;28;20496;-74
2021/08/16 00:51:21;;;;;;;9.65;7.72;;;19.50;99.90;;;;;;2089937;28;20103;-73
2021/08/16 00:52:23;;;;;;;9.57;8.10;;;19.40;99.90;;;;;;2089958;28;20032;-72
2021/08/16 00:53:24;;;;;;;10.73;8.05;;;19.40;99.90;;;;;;2072657;28;20512;-73
2021/08/16 00:54:24;;;;;;;10.25;8.10;;;19.40;99.90;;;;;;2072663;28;20041;-72
2021/08/16 00:55:25;;;;;;;9.98;8.15;;;19.40;99.90;;;;;;2072686;28;20022;-72
2021/08/16 00:56:27;;;;;;;10.30;8.18;;;19.40;99.90;;;;;;2072556;28;20033;-72
2021/08/16 00:57:34;;;;;;;8.68;7.78;;;19.40;99.90;;;;;;2080795;28;20017;-72
2021/08/16 00:58:35;;;;;;;10.38;8.30;;;19.40;99.90;;;;;;2073410;28;20030;-72
2021/08/16 00:59:36;;;;;;;11.65;7.93;;;19.40;99.90;;;;;;2080090;28;20033;-72
2021/08/16 01:00:36;;;;;;;8.77;7.72;;;19.40;99.90;;;;;;2080450;28;20112;-72
2021/08/16 01:01:38;;;;;;;11.00;8.07;;;19.40;99.90;;;;;;2080886;28;20041;-72
2021/08/16 01:02:41;;;;;;;10.18;7.88;;;19.40;99.90;;;;;;2080726;28;20087;-72
2021/08/16 01:03:42;;;;;;;10.13;8.10;;;19.30;99.90;;;;;;2081094;28;20022;-72
2021/08/16 01:04:42;;;;;;;11.38;8.60;;;19.30;99.90;;;;;;2080622;28;20096;-72
2021/08/16 01:05:43;;;;;;;11.02;8.52;;;19.30;99.90;;;;;;2080814;28;20451;-72
2021/08/16 01:06:44;;;;;;;9.43;7.95;;;19.30;99.90;;;;;;2080601;28;20503;-72
2021/08/16 01:07:46;;;;;;;11.00;8.52;;;19.30;99.90;;;;;;2080593;28;20137;-72
2021/08/16 01:08:48;;;;;;;11.50;8.35;;;19.30;99.90;;;;;;2089177;28;20033;-73
2021/08/16 01:09:49;;;;;;;11.55;8.63;;;19.30;99.90;;;;;;2088922;28;20676;-74
2021/08/16 01:10:50;;;;;;;11.85;8.18;;;19.20;99.90;;;;;;2089488;28;20036;-73
2021/08/16 01:11:51;;;;;;;9.60;8.27;;;19.20;99.90;;;;;;2089445;28;20052;-73
2021/08/16 01:12:52;;;;;;;10.15;8.25;;;19.20;99.90;;;;;;2072421;28;20068;-73
2021/08/16 01:13:52;;;;;;;11.43;8.27;;;19.20;99.90;;;;;;2064360;28;20045;-73
2021/08/16 01:14:53;;;;;;;12.02;8.52;;;19.20;99.90;;;;;;2080635;28;20040;-72
2021/08/16 01:15:55;;;;;;;11.35;8.10;;;19.20;99.90;;;;;;2089395;28;20512;-72
2021/08/16 01:16:57;;;;;;;10.10;7.95;;;19.20;99.90;;;;;;2089590;28;20025;-72
2021/08/16 01:17:57;;;;;;;10.20;8.18;;;19.10;99.90;;;;;;2089483;28;20370;-72
2021/08/16 01:18:58;;;;;;;12.82;8.45;;;19.20;99.90;;;;;;2079840;28;20106;-73
2021/08/16 01:19:59;;;;;;;11.48;8.30;;;19.10;99.90;;;;;;2080432;28;20504;-72
2021/08/16 01:21:02;;;;;;;10.07;7.80;;;19.10;99.90;;;;;;2080779;28;20358;-73
2021/08/16 01:22:03;;;;;;;11.35;7.88;;;19.10;99.90;;;;;;2080449;28;20750;-72
2021/08/16 01:23:03;;;;;;;10.40;7.88;;;19.10;99.90;;;;;;2080534;28;20104;-73
2021/08/16 01:24:05;;;;;;;10.25;8.02;;;19.00;99.90;;;;;;2089115;28;20032;-73
2021/08/16 01:25:08;;;;;;;9.82;8.13;;;19.00;99.90;;;;;;2089363;28;20067;-72
2021/08/16 01:26:10;;;;;;;11.07;8.70;;;19.00;99.90;;;;;;2089377;28;20056;-72
2021/08/16 01:27:12;;;;;;;9.55;8.40;;;19.00;99.90;;;;;;2080555;28;20790;-72
2021/08/16 01:28:16;;;;;;;10.93;8.02;;;19.00;99.90;;;;;;2072390;28;20089;-73
2021/08/16 01:29:18;;;;;;;9.77;8.43;;;18.90;99.90;;;;;;2080263;28;20543;-72
2021/08/16 01:30:19;;;;;;;11.63;8.48;;;18.90;99.90;;;;;;2080593;28;20497;-72
2021/08/16 01:31:20;;;;;;;9.40;8.40;;;18.90;99.90;;;;;;2080369;28;20029;-72
2021/08/16 01:32:20;;;;;;;8.77;7.88;;;18.90;99.90;;;;;;2089409;28;20028;-72
2021/08/16 01:33:22;;;;;;;9.85;8.20;;;18.90;99.90;;;;;;2072360;28;20077;-73
2021/08/16 01:34:23;;;;;;;9.98;8.18;;;18.90;99.90;;;;;;2072547;28;20034;-73
2021/08/16 01:35:23;;;;;;;10.57;8.18;;;18.90;99.90;;;;;;2089326;28;20103;-73
2021/08/16 01:36:24;;;;;;;10.63;8.63;;;18.90;99.90;;;;;;2089307;28;20048;-73
2021/08/16 01:37:24;;;;;;;11.63;8.63;;;18.90;99.90;;;;;;2080546;28;20488;-74
2021/08/16 01:38:29;;;;;;;10.50;8.70;;;18.80;99.90;;;;;;2080563;28;20029;-72
2021/08/16 01:39:30;;;;;;;11.68;8.48;;;18.90;99.90;;;;;;2079577;28;20053;-72
2021/08/16 01:40:31;;;;;;;11.27;8.30;;;18.80;99.90;;;;;;2080732;28;20036;-72
2021/08/16 01:41:31;;;;;;;11.70;8.80;;;18.80;99.90;;;;;;2089354;28;20562;-72
2021/08/16 01:42:32;;;;;;;11.00;8.52;;;18.80;99.90;;;;;;2080277;28;20033;-73
2021/08/16 01:43:33;;;;;;;10.93;8.93;;;18.80;99.90;;;;;;2080596;28;20152;-73
2021/08/16 01:44:33;;;;;;;10.98;8.10;;;18.80;99.90;;;;;;2089304;28;20353;-72
2021/08/16 01:45:34;;;;;;;11.38;8.55;;;18.70;99.90;;;;;;2080425;28;20029;-73
2021/08/16 01:46:34;;;;;;;11.13;8.98;;;18.80;99.90;;;;;;2080398;28;20697;-72
2021/08/16 01:47:35;;;;;;;12.57;8.60;;;18.70;99.90;;;;;;2080383;28;20033;-72
2021/08/16 01:48:36;;;;;;;9.70;8.40;;;18.70;99.90;;;;;;2080267;28;20034;-72
2021/08/16 01:49:37;;;;;;;10.93;8.48;;;18.70;99.90;;;;;;2088963;28;20033;-73
2021/08/16 01:50:37;;;;;;;10.32;8.38;;;18.70;99.90;;;;;;2089326;28;20028;-73
2021/08/16 01:51:39;;;;;;;10.43;8.52;;;18.70;99.90;;;;;;2080331;28;20029;-73
2021/08/16 01:52:39;;;;;;;10.93;8.68;;;18.70;99.90;;;;;;2072364;28;20080;-73
2021/08/16 01:53:40;;;;;;;10.10;8.30;;;18.70;99.90;;;;;;2080265;28;20477;-73
2021/08/16 01:54:40;;;;;;;10.95;8.43;;;18.70;99.90;;;;;;2089052;28;20048;-73
2021/08/16 01:55:41;;;;;;;9.85;8.50;;;18.70;99.90;;;;;;2089160;28;20044;-73
2021/08/16 01:56:42;;;;;;;9.45;8.02;;;18.70;99.90;;;;;;2089153;28;20033;-73
2021/08/16 01:57:43;;;;;;;10.80;8.55;;;18.70;99.90;;;;;;2080336;28;20036;-73
2021/08/16 01:58:43;;;;;;;11.35;8.48;;;18.70;99.90;;;;;;2080025;28;20041;-72
2021/08/16 01:59:44;;;;;;;11.23;8.88;;;18.70;99.90;;;;;;2088693;28;20041;-72
2021/08/16 02:00:45;;;;;;;11.30;8.43;;;18.70;99.90;;;;;;2089210;28;20036;-73
2021/08/16 02:01:45;;;;;;;12.48;8.65;;;18.70;99.90;;;;;;2089307;28;20033;-73
2021/08/16 02:02:46;;;;;;;11.27;8.27;;;18.70;99.90;;;;;;2080855;28;20039;-73
2021/08/16 02:03:46;;;;;;;10.45;8.20;;;18.70;99.90;;;;;;2083662;28;20500;-73
2021/08/16 02:04:47;;;;;;;10.93;8.57;;;18.70;99.90;;;;;;2097349;28;20109;-73
2021/08/16 02:05:48;;;;;;;9.88;8.15;;;18.70;99.90;;;;;;2098554;28;20035;-73
2021/08/16 02:06:48;;;;;;;10.45;8.57;;;18.70;99.90;;;;;;2089288;28;20058;-72
2021/08/16 02:07:49;;;;;;;9.38;8.20;;;18.70;99.90;;;;;;2081552;28;20586;-73
2021/08/16 02:08:50;;;;;;;10.93;8.85;;;18.70;99.90;;;;;;2090096;28;20013;-73
2021/08/16 02:09:50;;;;;;;10.48;8.32;;;18.70;99.90;;;;;;2089820;28;20057;-72
2021/08/16 02:10:51;;;;;;;9.38;8.38;;;18.70;99.90;;;;;;2087456;28;20025;-72
2021/08/16 02:11:51;;;;;;;9.52;8.40;;;18.60;99.90;;;;;;2092023;28;20032;-72
2021/08/16 02:12:52;;;;;;;12.32;8.55;;;18.70;99.90;;;;;;2090650;28;20043;-73
2021/08/16 02:13:53;;;;;;;13.57;8.70;;;18.60;99.90;;;;;;2073201;28;20863;-73
2021/08/16 02:14:53;;;;;;;10.90;8.65;;;18.60;99.90;;;;;;2072688;28;20111;-72
2021/08/16 02:15:54;;;;;;;9.90;8.27;;;18.60;99.90;;;;;;2089275;28;20040;-73
2021/08/16 02:16:54;;;;;;;10.82;8.55;;;18.60;99.90;;;;;;2089518;28;20106;-73
2021/08/16 02:17:55;;;;;;;12.20;8.90;;;18.60;99.90;;;;;;2089271;28;20029;-73
2021/08/16 02:18:56;;;;;;;11.88;9.32;;;18.60;99.90;;;;;;2088753;28;20043;-72
2021/08/16 02:19:56;;;;;;;10.15;8.80;;;18.50;99.90;;;;;;2080335;28;20033;-72
2021/08/16 02:20:57;;;;;;;9.95;8.75;;;18.50;99.90;;;;;;2080301;28;20037;-71
2021/08/16 02:21:58;;;;;;;11.25;8.80;;;18.50;99.90;;;;;;2089007;28;20025;-72
2021/08/16 02:22:59;;;;;;;11.43;8.63;;;18.50;99.90;;;;;;2089042;28;20035;-72
2021/08/16 02:23:59;;;;;;;11.45;8.90;;;18.50;99.90;;;;;;2088986;28;20027;-71
2021/08/16 02:25:00;;;;;;;10.27;8.68;;;18.40;99.90;;;;;;2088834;28;20436;-72
2021/08/16 02:26:00;;;;;;;11.70;9.00;;;18.40;99.90;;;;;;2088949;28;20036;-72
2021/08/16 02:27:01;;;;;;;11.65;8.77;;;18.40;99.90;;;;;;2080167;28;20029;-72
2021/08/16 02:28:02;;;;;;;11.00;9.20;;;18.40;99.90;;;;;;2080152;28;20063;-72
2021/08/16 02:29:02;;;;;;;10.38;8.60;;;18.40;99.90;;;;;;2088296;28;20099;-72
2021/08/16 02:30:03;;;;;;;9.30;8.30;;;18.40;99.90;;;;;;2079886;28;20045;-72
2021/08/16 02:31:04;;;;;;;12.60;9.20;;;18.40;99.90;;;;;;2071883;28;20054;-73
2021/08/16 02:32:05;;;;;;;11.25;9.07;;;18.30;99.90;;;;;;2071380;28;20488;-72
2021/08/16 02:33:06;;;;;;;10.07;8.80;;;18.30;99.90;;;;;;2088915;28;20032;-72
2021/08/16 02:34:07;;;;;;;11.02;9.25;;;18.30;99.90;;;;;;2080078;28;20413;-72
2021/08/16 02:35:08;;;;;;;10.88;8.98;;;18.30;99.90;;;;;;2080202;28;20079;-72
2021/08/16 02:36:08;;;;;;;11.45;8.88;;;18.30;99.90;;;;;;2080107;28;20021;-72
2021/08/16 02:37:09;;;;;;;9.38;8.30;;;18.20;99.90;;;;;;2080108;28;20536;-72
2021/08/16 02:38:12;;;;;;;11.65;9.27;;;18.20;99.90;;;;;;2088799;28;20131;-72
2021/08/16 02:39:12;;;;;;;10.55;8.70;;;18.20;99.90;;;;;;2087992;28;21324;-71
2021/08/16 02:40:13;;;;;;;10.82;8.80;;;18.20;99.90;;;;;;2079907;28;20033;-72
2021/08/16 02:41:14;;;;;;;12.57;8.50;;;18.20;99.90;;;;;;2071639;28;20405;-71
2021/08/16 02:42:14;;;;;;;9.98;8.60;;;18.20;99.90;;;;;;2079889;28;20116;-72
2021/08/16 02:43:15;;;;;;;12.70;8.70;;;18.20;99.90;;;;;;2080015;28;20025;-72
2021/08/16 02:44:15;;;;;;;11.88;8.43;;;18.20;99.90;;;;;;2080000;28;20047;-72
2021/08/16 02:45:16;;;;;;;12.20;8.82;;;18.20;99.90;;;;;;2088864;28;20025;-72
2021/08/16 02:46:19;;;;;;;11.00;8.68;;;18.20;99.90;;;;;;2088804;28;20029;-72
2021/08/16 02:47:21;;;;;;;10.90;8.77;;;18.20;99.90;;;;;;2088781;28;20021;-72
2021/08/16 02:48:22;;;;;;;10.85;8.95;;;18.20;99.90;;;;;;2071946;28;20033;-73
2021/08/16 02:49:23;;;;;;;10.52;8.98;;;18.20;99.90;;;;;;2070981;28;20044;-72
2021/08/16 02:50:24;;;;;;;9.90;8.30;;;18.20;99.90;;;;;;2080002;28;20033;-72
2021/08/16 02:51:26;;;;;;;12.68;8.77;;;18.20;99.90;;;;;;2079943;28;20021;-72
2021/08/16 02:52:26;;;;;;;10.98;8.70;;;18.20;99.90;;;;;;2080059;28;20033;-72
2021/08/16 02:53:27;;;;;;;10.00;8.68;;;18.20;99.90;;;;;;2088805;28;20029;-73
2021/08/16 02:54:28;;;;;;;10.30;8.57;;;18.20;99.90;;;;;;2088896;28;20032;-73
2021/08/16 02:55:28;;;;;;;10.15;8.77;;;18.20;99.90;;;;;;2080200;28;20029;-73
2021/08/16 02:56:29;;;;;;;9.80;8.65;;;18.20;99.90;;;;;;2063801;28;20018;-73
2021/08/16 02:57:30;;;;;;;11.10;9.13;;;18.20;99.90;;;;;;2072028;28;20573;-73
2021/08/16 02:58:31;;;;;;;11.30;9.00;;;18.20;99.90;;;;;;2089210;28;20655;-73
2021/08/16 02:59:31;;;;;;;11.02;8.70;;;18.20;99.90;;;;;;2088523;28;20031;-73
2021/08/16 03:00:32;;;;;;;11.52;9.05;;;18.20;99.90;;;;;;2089489;28;20474;-72
2021/08/16 03:01:33;;;;;;;11.35;9.50;;;18.20;99.90;;;;;;2089924;28;20053;-73
2021/08/16 03:02:33;;;;;;;10.65;8.90;;;18.20;99.90;;;;;;2090409;28;20124;-72
2021/08/16 03:03:34;;;;;;;13.55;9.20;;;18.20;99.90;;;;;;2091045;28;20113;-72
2021/08/16 03:04:34;;;;;;;11.00;9.13;;;18.20;99.90;;;;;;2090444;28;20049;-72
2021/08/16 03:05:35;;;;;;;10.15;8.73;;;18.20;99.90;;;;;;2073394;28;20030;-72
2021/08/16 03:06:36;;;;;;;10.60;9.30;;;18.20;99.90;;;;;;2073347;28;20037;-72
2021/08/16 03:07:37;;;;;;;11.43;9.05;;;18.20;99.90;;;;;;2089246;28;20484;-73
2021/08/16 03:08:38;;;;;;;11.30;9.30;;;18.20;99.90;;;;;;2088694;28;20039;-73
2021/08/16 03:09:39;;;;;;;9.77;8.77;;;18.30;99.90;;;;;;2088563;28;20491;-73
2021/08/16 03:10:39;;;;;;;10.52;8.77;;;18.30;99.90;;;;;;2088975;28;20029;-72
2021/08/16 03:11:40;;;;;;;12.30;9.10;;;18.30;99.90;;;;;;2080125;28;20501;-72
2021/08/16 03:12:41;;;;;;;10.65;8.85;;;18.30;99.90;;;;;;2080090;28;20030;-73
2021/08/16 03:13:41;;;;;;;11.85;9.10;;;18.30;99.90;;;;;;2080398;28;20465;-73
2021/08/16 03:14:42;;;;;;;9.32;8.32;;;18.30;99.90;;;;;;2080660;28;20037;-73
2021/08/16 03:15:42;;;;;;;10.65;8.90;;;18.30;99.90;;;;;;2090124;28;20079;-72
2021/08/16 03:16:43;;;;;;;11.10;8.93;;;18.30;99.90;;;;;;2081958;28;20041;-72
2021/08/16 03:17:44;;;;;;;10.55;8.35;;;18.30;99.90;;;;;;2073823;28;20034;-73
2021/08/16 03:18:44;;;;;;;11.18;8.82;;;18.30;99.90;;;;;;2080389;28;20071;-72
2021/08/16 03:19:45;;;;;;;11.88;9.13;;;18.30;99.90;;;;;;2079257;28;20033;-73
2021/08/16 03:20:45;;;;;;;11.90;9.20;;;18.30;99.90;;;;;;2071714;28;20033;-73
2021/08/16 03:21:46;;;;;;;10.98;9.10;;;18.30;99.90;;;;;;2080002;28;20034;-71
2021/08/16 03:22:47;;;;;;;10.30;8.57;;;18.30;99.90;;;;;;2088509;28;20037;-72
2021/08/16 03:23:48;;;;;;;12.35;9.02;;;18.30;99.90;;;;;;2088592;28;20017;-71
2021/08/16 03:24:48;;;;;;;10.63;8.90;;;18.30;99.90;;;;;;2088424;28;20503;-72
2021/08/16 03:25:49;;;;;;;11.75;9.38;;;18.20;99.90;;;;;;2079836;28;20037;-71
2021/08/16 03:26:50;;;;;;;12.18;9.48;;;18.20;99.90;;;;;;2071461;28;20211;-72
2021/08/16 03:27:51;;;;;;;11.65;9.43;;;18.30;99.90;;;;;;2079612;28;20060;-72
2021/08/16 03:28:51;;;;;;;11.48;9.38;;;18.20;99.90;;;;;;2088203;28;20033;-71
2021/08/16 03:29:52;;;;;;;11.00;9.35;;;18.20;99.90;;;;;;2079176;28;20029;-72
2021/08/16 03:30:52;;;;;;;10.57;8.85;;;18.20;99.90;;;;;;2071637;28;20057;-72
2021/08/16 03:31:53;;;;;;;11.50;9.10;;;18.20;99.90;;;;;;2079617;28;20083;-71
2021/08/16 03:32:54;;;;;;;11.38;8.68;;;18.20;99.90;;;;;;2088504;28;20048;-72
2021/08/16 03:33:54;;;;;;;10.30;9.25;;;18.20;99.90;;;;;;2079723;28;20544;-73
2021/08/16 03:34:55;;;;;;;11.95;9.27;;;18.20;99.90;;;;;;2079733;28;20037;-73
2021/08/16 03:35:55;;;;;;;10.35;8.77;;;18.20;99.90;;;;;;2088521;28;20380;-73
2021/08/16 03:36:56;;;;;;;10.38;9.20;;;18.20;99.90;;;;;;2088605;28;20488;-72
2021/08/16 03:37:57;;;;;;;12.55;9.50;;;18.20;99.90;;;;;;2088373;28;20029;-72
2021/08/16 03:38:58;;;;;;;11.50;9.13;;;18.20;99.90;;;;;;2087668;28;20122;-72
2021/08/16 03:39:59;;;;;;;12.23;9.48;;;18.20;99.90;;;;;;2079382;28;20029;-73
2021/08/16 03:41:00;;;;;;;11.18;8.98;;;18.20;99.90;;;;;;2079561;28;20081;-73
2021/08/16 03:42:00;;;;;;;11.50;8.60;;;18.20;99.90;;;;;;2088317;28;20025;-72
2021/08/16 03:43:01;;;;;;;11.05;8.90;;;18.20;99.90;;;;;;2088396;28;20488;-72
2021/08/16 03:44:02;;;;;;;12.35;8.93;;;18.20;99.90;;;;;;2079954;28;20536;-71
2021/08/16 03:45:23;;;;;;;13.20;9.70;;;18.20;99.90;;;;;;2081555;28;20029;-72
2021/08/16 03:46:24;;;;;;;;;;;18.20;99.90;;;;;;2081328;28;20034;-71
2021/08/16 03:47:24;;;;;;;12.73;8.90;;;18.30;99.90;;;;;;2081315;28;20308;-71
2021/08/16 03:48:25;;;;;;;11.82;9.10;;;18.20;99.90;;;;;;2089996;28;20029;-71
2021/08/16 03:49:26;;;;;;;10.60;9.20;;;18.30;99.90;;;;;;2089213;28;20037;-71
2021/08/16 03:50:27;;;;;;;11.38;9.30;;;18.30;99.90;;;;;;2090063;28;20108;-72
2021/08/16 03:51:27;;;;;;;11.23;9.30;;;18.30;99.90;;;;;;2090033;28;20032;-72
2021/08/16 03:52:28;;;;;;;11.75;8.95;;;18.40;99.90;;;;;;2090141;28;20029;-71
2021/08/16 03:53:29;;;;;;;11.70;9.18;;;18.40;99.90;;;;;;2089978;28;20021;-72
2021/08/16 03:54:29;;;;;;;12.38;9.10;;;18.40;99.90;;;;;;2089923;28;20036;-71
2021/08/16 03:55:30;;;;;;;10.20;9.10;;;18.50;99.90;;;;;;2081278;28;20025;-72
2021/08/16 03:56:31;;;;;;;10.35;8.70;;;18.50;99.90;;;;;;2081236;28;20101;-71
2021/08/16 03:57:31;;;;;;;10.32;9.13;;;18.60;99.90;;;;;;2090102;28;20037;-72
2021/08/16 03:58:32;;;;;;;10.13;8.85;;;18.60;99.90;;;;;;2089697;28;20033;-72
2021/08/16 03:59:33;;;;;;;10.57;8.63;;;18.60;99.90;;;;;;2072052;28;20025;-72
2021/08/16 04:00:34;;;;;;;13.05;8.88;;;18.60;99.90;;;;;;2073109;28;20076;-72
2021/08/16 04:01:35;;;;;;;10.93;9.30;;;18.60;99.90;;;;;;2089992;28;20025;-72
2021/08/16 04:02:39;;;;;;;11.27;8.68;;;18.70;99.90;;;;;;2089980;28;20104;-72
2021/08/16 04:03:41;;;;;;;10.00;8.52;;;18.70;99.90;;;;;;2072811;28;20615;-72
2021/08/16 04:04:42;;;;;;;11.23;8.95;;;18.70;99.90;;;;;;2073315;28;20076;-71
2021/08/16 04:05:43;;;;;;;10.52;8.80;;;18.70;99.90;;;;;;2081123;28;20034;-72
2021/08/16 04:06:44;;;;;;;9.85;8.70;;;18.80;99.90;;;;;;2081188;28;20026;-73
2021/08/16 04:07:45;;;;;;;11.20;8.75;;;18.80;99.90;;;;;;2080972;28;20084;-73
2021/08/16 04:08:45;;;;;;;9.77;8.77;;;18.80;99.90;;;;;;2080823;28;20116;-73
2021/08/16 04:09:46;;;;;;;9.52;8.43;;;18.80;99.90;;;;;;2089394;28;20035;-72
2021/08/16 04:10:47;;;;;;;9.63;8.30;;;18.80;99.90;;;;;;2089984;28;20025;-72
2021/08/16 04:11:47;;;;;;;9.98;8.55;;;18.90;99.90;;;;;;2081087;28;20022;-72
2021/08/16 04:12:48;;;;;;;10.98;8.55;;;18.90;99.90;;;;;;2081138;28;20049;-73
2021/08/16 04:13:48;;;;;;;12.80;8.90;;;19.00;99.90;;;;;;2081304;28;20108;-72
2021/08/16 04:14:49;;;;;;;11.35;9.40;;;19.00;99.90;;;;;;2081069;28;20033;-73
2021/08/16 04:15:49;;;;;;;12.73;9.25;;;19.00;99.90;;;;;;2072912;28;20041;-73
2021/08/16 04:16:50;;;;;;;12.70;9.85;;;19.10;99.90;;;;;;2081165;28;20535;-73
2021/08/16 04:17:51;;;;;;;11.23;8.60;;;19.10;99.90;;;;;;2090013;28;20047;-72
2021/08/16 04:18:52;;;;;;;10.77;9.00;;;19.10;99.90;;;;;;2089410;28;20043;-73
2021/08/16 04:19:52;;;;;;;11.35;9.02;;;19.10;99.90;;;;;;2080396;28;20468;-73
2021/08/16 04:20:53;;;;;;;11.23;8.73;;;19.10;99.90;;;;;;2081093;28;20029;-72
2021/08/16 04:21:53;;;;;;;11.68;9.15;;;19.20;99.90;;;;;;2089804;28;20031;-72
2021/08/16 04:22:54;;;;;;;10.13;8.75;;;19.20;99.90;;;;;;2089754;28;20107;-73
2021/08/16 04:23:55;;;;;;;13.55;9.20;;;19.20;99.90;;;;;;2089857;28;20017;-71
2021/08/16 04:24:55;;;;;;;11.55;8.57;;;19.20;99.90;;;;;;2080952;28;20029;-72
2021/08/16 04:25:56;;;;;;;9.63;8.60;;;19.30;99.90;;;;;;2080939;28;20032;-72
2021/08/16 04:26:56;;;;;;;12.05;8.52;;;19.30;99.90;;;;;;2089836;28;20035;-72
2021/08/16 04:27:57;;;;;;;10.27;8.50;;;19.30;99.90;;;;;;2080780;28;20112;-71
2021/08/16 04:28:58;;;;;;;12.73;9.10;;;19.30;99.90;;;;;;2063801;28;20026;-72
2021/08/16 04:29:58;;;;;;;12.90;9.40;;;19.30;99.90;;;;;;2072469;28;20026;-73
2021/08/16 04:30:59;;;;;;;13.20;8.75;;;19.30;99.90;;;;;;2080973;28;20029;-71
2021/08/16 04:31:59;;;;;;;11.73;8.43;;;19.30;99.90;;;;;;2081015;28;20140;-72
2021/08/16 04:33:00;;;;;;;10.52;8.55;;;19.30;99.90;;;;;;2089804;28;20036;-72
2021/08/16 04:34:01;;;;;;;11.10;8.70;;;19.30;99.90;;;;;;2089883;28;20119;-71
2021/08/16 04:35:02;;;;;;;9.45;8.45;;;19.30;99.90;;;;;;2089629;28;20123;-72
2021/08/16 04:36:03;;;;;;;11.25;8.88;;;19.30;99.90;;;;;;2089801;28;20112;-72
2021/08/16 04:37:03;;;;;;;10.63;8.73;;;19.30;99.90;;;;;;2089757;28;20041;-71
2021/08/16 04:38:04;;;;;;;11.40;8.88;;;19.40;99.90;;;;;;2089801;28;20090;-71
2021/08/16 04:39:05;;;;;;;10.60;8.50;;;19.30;99.90;;;;;;2080066;28;20044;-72
2021/08/16 04:40:07;;;;;;;10.05;8.93;;;19.30;99.90;;;;;;2080792;28;20083;-71
2021/08/16 04:41:08;;;;;;;13.00;9.02;;;19.40;99.90;;;;;;2089699;28;20480;-71
2021/08/16 04:42:09;;;;;;;11.35;9.38;;;19.40;99.90;;;;;;2072954;28;20030;-71
2021/08/16 04:43:09;;;;;;;9.85;8.68;;;19.40;99.90;;;;;;2072873;28;20034;-71
2021/08/16 04:44:10;;;;;;;10.02;8.70;;;19.40;99.90;;;;;;2080957;28;20469;-71
2021/08/16 04:45:11;;;;;;;11.07;9.02;;;19.40;99.90;;;;;;2081000;28;20038;-71
2021/08/16 04:46:12;;;;;;;9.43;8.35;;;19.50;99.90;;;;;;2089841;28;20029;-71
2021/08/16 04:47:13;;;;;;;9.13;7.68;;;19.50;99.90;;;;;;2089810;28;20033;-71
2021/08/16 04:48:14;;;;;;;13.23;8.40;;;19.50;99.90;;;;;;2080776;28;20509;-71
2021/08/16 04:49:14;;;;;;;9.82;8.18;;;19.50;99.90;;;;;;2071706;28;20279;-71
2021/08/16 04:50:16;;;;;;;10.02;8.38;;;19.50;99.90;;;;;;2080514;28;20100;-74
2021/08/16 04:51:16;;;;;;;11.25;8.68;;;19.50;99.90;;;;;;2072751;28;20033;-71
2021/08/16 04:52:17;;;;;;;11.57;8.35;;;19.50;99.90;;;;;;2080864;28;20639;-71
2021/08/16 04:53:18;;;;;;;10.95;8.50;;;19.50;99.90;;;;;;2080765;28;20028;-72
2021/08/16 04:54:18;;;;;;;8.68;7.78;;;19.50;99.90;;;;;;2080791;28;20621;-71
2021/08/16 04:55:19;;;;;;;9.65;8.38;;;19.50;99.90;;;;;;2089131;28;20481;-71
2021/08/16 04:56:19;;;;;;;11.07;8.65;;;19.50;99.90;;;;;;2089652;28;20021;-72
2021/08/16 04:57:31;;;;;;;10.85;8.38;;;19.50;99.90;;;;;;2080769;28;20167;-72
2021/08/16 04:58:32;;;;;;;9.45;8.20;;;19.50;99.90;;;;;;2082384;28;20836;-73
2021/08/16 04:59:32;;;;;;;9.65;8.60;;;19.50;99.90;;;;;;2088771;28;20028;-72
2021/08/16 05:00:33;;;;;;;11.85;8.32;;;19.50;99.90;;;;;;2089593;28;20025;-72
2021/08/16 05:01:34;;;;;;;11.35;8.65;;;19.50;99.90;;;;;;2089608;28;20065;-72
2021/08/16 05:02:35;;;;;;;10.13;8.57;;;19.50;99.90;;;;;;2089534;28;20025;-72
2021/08/16 05:03:36;;;;;;;10.70;8.70;;;19.50;99.90;;;;;;2089595;28;20029;-72
2021/08/16 05:04:36;;;;;;;10.13;8.18;;;19.60;99.90;;;;;;2089440;28;20125;-72
2021/08/16 05:05:37;;;;;;;10.95;8.52;;;19.60;99.90;;;;;;2080748;28;20056;-72
2021/08/16 05:06:42;;;;;;;9.85;8.40;;;19.60;99.90;;;;;;2072445;28;20109;-72
2021/08/16 05:07:50;;;;;;;10.52;8.25;;;19.60;99.90;;;;;;2073041;28;20034;-72
2021/08/16 05:08:51;;;;;;;11.10;8.75;;;19.70;99.90;;;;;;2081557;28;20025;-72
2021/08/16 05:09:52;;;;;;;9.25;7.85;;;19.70;99.90;;;;;;2088922;28;20024;-72
2021/08/16 05:10:52;;;;;;;11.95;8.55;;;19.70;99.90;;;;;;2089471;28;20815;-72
2021/08/16 05:11:53;;;;;;;10.27;8.50;;;19.70;99.90;;;;;;2089597;28;20025;-72
2021/08/16 05:12:55;;;;;;;10.15;8.70;;;19.80;99.90;;;;;;2089543;28;20033;-72
2021/08/16 05:13:56;;;;;;;11.82;8.45;;;19.80;99.90;;;;;;2089447;28;20062;-72
2021/08/16 05:14:57;;;;;;;10.38;8.48;;;19.80;99.90;;;;;;2089328;28;20039;-72